Terminal Aerodrome Forecast
Issued by NWS Jackson, KY

Home | Current Version | Previous Version | Text Only | Print | Product List | Glossary On
Versions: 1 2 3 4 5 6 7 8 9 10 11 12 13 14
000
FTUS43 KJKL 011739
TAFLOZ
TAF
KLOZ 011739Z 0118/0218 22006KT 6SM -RA OVC020
     FM020700 32007KT 6SM -RASN OVC009
     FM021300 35005KT P6SM BKN015=

USA.gov is the U.S. government's official web portal to all federal, state and local government web resources and services.